South Washington, Vermont
Current Conditions -  °F | °C
As of 12:51 PM on Friday 19 Dec 2014 (Local Time) from KMPV Reporting Station
Overcast Overcast  
Wind Chill: -10°   Ceiling: 1200
Heat Index: -5°   Visibility: 10mi
Dew Point: -8°   Wind: 7mph
Humidity: 81%   Direction: 300°WNW
Pressure: 30.02"   Gusts: NA
Location:  44.0671°N, 72.4216°W
Report Text: KMPV 191751Z AUTO 30006KT 10SM OVC012 M05/M08 A3002 RMK AO2 SLP185 T10501078 11050 21056 51004
Loading
Personal Weather Stations






























Interactive Weather Map New forecast layout! Learn more

10-Day Weather Forecast

Advertisements
Track Severe Weather on mobile